sensor_id;sensor_type;location;lat;lon;timestamp;P1;durP1;ratioP1;P2;durP2;ratioP2
56141;SDS011;42018;48.588;10.836;2024-02-23T00:01:03;0.95;;;0.80;;
56141;SDS011;42018;48.588;10.836;2024-02-23T00:03:49;0.80;;;0.80;;
56141;SDS011;42018;48.588;10.836;2024-02-23T00:06:34;0.93;;;0.80;;
56141;SDS011;42018;48.588;10.836;2024-02-23T00:09:19;1.33;;;0.70;;
56141;SDS011;42018;48.588;10.836;2024-02-23T00:12:05;0.68;;;0.68;;
56141;SDS011;42018;48.588;10.836;2024-02-23T00:14:51;1.40;;;0.80;;
56141;SDS011;42018;48.588;10.836;2024-02-23T00:17:37;1.13;;;0.88;;
56141;SDS011;42018;48.588;10.836;2024-02-23T00:20:23;0.80;;;0.80;;
56141;SDS011;42018;48.588;10.836;2024-02-23T00:23:09;0.88;;;0.80;;
56141;SDS011;42018;48.588;10.836;2024-02-23T00:25:54;1.23;;;0.80;;
56141;SDS011;42018;48.588;10.836;2024-02-23T00:28:40;1.15;;;0.80;;
56141;SDS011;42018;48.588;10.836;2024-02-23T00:31:25;0.82;;;0.80;;
56141;SDS011;42018;48.588;10.836;2024-02-23T00:34:11;0.80;;;0.80;;
56141;SDS011;42018;48.588;10.836;2024-02-23T00:36:58;0.82;;;0.80;;
56141;SDS011;42018;48.588;10.836;2024-02-23T00:39:43;1.67;;;1.00;;
56141;SDS011;42018;48.588;10.836;2024-02-23T00:42:29;1.05;;;0.80;;
56141;SDS011;42018;48.588;10.836;2024-02-23T00:45:15;0.82;;;0.82;;
56141;SDS011;42018;48.588;10.836;2024-02-23T00:48:00;0.98;;;0.90;;
56141;SDS011;42018;48.588;10.836;2024-02-23T00:50:46;1.38;;;0.80;;
56141;SDS011;42018;48.588;10.836;2024-02-23T00:53:32;1.20;;;0.90;;
56141;SDS011;42018;48.588;10.836;2024-02-23T00:56:17;1.80;;;0.90;;
56141;SDS011;42018;48.588;10.836;2024-02-23T00:59:02;2.30;;;1.00;;
56141;SDS011;42018;48.588;10.836;2024-02-23T01:01:48;1.00;;;0.90;;
56141;SDS011;42018;48.588;10.836;2024-02-23T01:04:33;1.17;;;0.90;;
56141;SDS011;42018;48.588;10.836;2024-02-23T01:07:19;0.85;;;0.80;;
56141;SDS011;42018;48.588;10.836;2024-02-23T01:10:05;0.90;;;0.80;;
56141;SDS011;42018;48.588;10.836;2024-02-23T01:12:50;2.60;;;0.90;;
56141;SDS011;42018;48.588;10.836;2024-02-23T01:15:36;1.30;;;0.98;;
56141;SDS011;42018;48.588;10.836;2024-02-23T01:18:21;1.38;;;0.95;;
56141;SDS011;42018;48.588;10.836;2024-02-23T01:21:07;0.88;;;0.80;;
56141;SDS011;42018;48.588;10.836;2024-02-23T01:23:53;1.70;;;0.90;;
56141;SDS011;42018;48.588;10.836;2024-02-23T01:26:38;1.55;;;0.98;;
56141;SDS011;42018;48.588;10.836;2024-02-23T01:29:25;1.45;;;0.90;;
56141;SDS011;42018;48.588;10.836;2024-02-23T01:32:11;4.32;;;1.00;;
56141;SDS011;42018;48.588;10.836;2024-02-23T01:34:56;1.08;;;0.95;;
56141;SDS011;42018;48.588;10.836;2024-02-23T01:37:42;1.30;;;1.00;;
56141;SDS011;42018;48.588;10.836;2024-02-23T01:40:27;1.52;;;1.00;;
56141;SDS011;42018;48.588;10.836;2024-02-23T01:43:13;1.55;;;0.90;;
56141;SDS011;42018;48.588;10.836;2024-02-23T01:45:59;2.08;;;0.90;;
56141;SDS011;42018;48.588;10.836;2024-02-23T01:48:45;1.95;;;0.98;;
56141;SDS011;42018;48.588;10.836;2024-02-23T01:51:31;1.25;;;0.90;;
56141;SDS011;42018;48.588;10.836;2024-02-23T01:54:17;0.80;;;0.80;;
56141;SDS011;42018;48.588;10.836;2024-02-23T01:57:02;1.40;;;0.90;;
56141;SDS011;42018;48.588;10.836;2024-02-23T01:59:48;2.05;;;1.00;;
56141;SDS011;42018;48.588;10.836;2024-02-23T02:02:34;1.33;;;0.90;;
56141;SDS011;42018;48.588;10.836;2024-02-23T02:05:20;1.23;;;0.90;;
56141;SDS011;42018;48.588;10.836;2024-02-23T02:08:06;1.17;;;0.85;;
56141;SDS011;42018;48.588;10.836;2024-02-23T02:10:52;3.22;;;1.10;;
56141;SDS011;42018;48.588;10.836;2024-02-23T02:13:38;0.80;;;0.80;;
56141;SDS011;42018;48.588;10.836;2024-02-23T02:16:23;0.85;;;0.80;;
56141;SDS011;42018;48.588;10.836;2024-02-23T02:19:09;0.80;;;0.80;;
56141;SDS011;42018;48.588;10.836;2024-02-23T02:21:55;0.93;;;0.90;;
56141;SDS011;42018;48.588;10.836;2024-02-23T02:24:41;1.40;;;0.90;;
56141;SDS011;42018;48.588;10.836;2024-02-23T02:27:28;0.90;;;0.90;;
56141;SDS011;42018;48.588;10.836;2024-02-23T02:30:14;1.00;;;0.80;;
56141;SDS011;42018;48.588;10.836;2024-02-23T02:32:59;1.35;;;0.90;;
56141;SDS011;42018;48.588;10.836;2024-02-23T02:35:45;1.20;;;0.90;;
56141;SDS011;42018;48.588;10.836;2024-02-23T02:38:31;0.80;;;0.80;;
56141;SDS011;42018;48.588;10.836;2024-02-23T02:41:18;0.90;;;0.80;;
56141;SDS011;42018;48.588;10.836;2024-02-23T02:44:04;0.80;;;0.80;;
56141;SDS011;42018;48.588;10.836;2024-02-23T02:46:50;1.50;;;1.00;;
56141;SDS011;42018;48.588;10.836;2024-02-23T02:49:35;0.80;;;0.80;;
56141;SDS011;42018;48.588;10.836;2024-02-23T02:52:21;0.93;;;0.80;;
56141;SDS011;42018;48.588;10.836;2024-02-23T02:55:08;0.85;;;0.82;;
56141;SDS011;42018;48.588;10.836;2024-02-23T02:57:53;0.80;;;0.80;;
56141;SDS011;42018;48.588;10.836;2024-02-23T03:00:39;1.38;;;0.90;;
56141;SDS011;42018;48.588;10.836;2024-02-23T03:03:25;1.67;;;0.90;;
56141;SDS011;42018;48.588;10.836;2024-02-23T03:06:10;0.80;;;0.80;;
56141;SDS011;42018;48.588;10.836;2024-02-23T03:08:56;1.00;;;0.90;;
56141;SDS011;42018;48.588;10.836;2024-02-23T03:11:41;0.80;;;0.80;;
56141;SDS011;42018;48.588;10.836;2024-02-23T03:14:27;0.80;;;0.80;;
56141;SDS011;42018;48.588;10.836;2024-02-23T03:17:12;0.88;;;0.88;;
56141;SDS011;42018;48.588;10.836;2024-02-23T03:19:58;1.70;;;0.93;;
56141;SDS011;42018;48.588;10.836;2024-02-23T03:22:44;1.58;;;0.90;;
56141;SDS011;42018;48.588;10.836;2024-02-23T03:25:29;1.63;;;1.00;;
56141;SDS011;42018;48.588;10.836;2024-02-23T03:28:15;1.65;;;0.90;;
56141;SDS011;42018;48.588;10.836;2024-02-23T03:31:00;2.97;;;0.90;;
56141;SDS011;42018;48.588;10.836;2024-02-23T03:33:46;1.70;;;0.90;;
56141;SDS011;42018;48.588;10.836;2024-02-23T03:36:31;0.80;;;0.80;;
56141;SDS011;42018;48.588;10.836;2024-02-23T03:39:17;1.08;;;0.90;;
56141;SDS011;42018;48.588;10.836;2024-02-23T03:42:03;0.95;;;0.90;;
56141;SDS011;42018;48.588;10.836;2024-02-23T03:44:48;1.80;;;0.93;;
56141;SDS011;42018;48.588;10.836;2024-02-23T03:47:34;0.85;;;0.82;;
56141;SDS011;42018;48.588;10.836;2024-02-23T03:50:19;2.25;;;0.90;;
56141;SDS011;42018;48.588;10.836;2024-02-23T03:53:05;1.50;;;1.20;;
56141;SDS011;42018;48.588;10.836;2024-02-23T03:55:50;1.38;;;0.90;;
56141;SDS011;42018;48.588;10.836;2024-02-23T03:58:36;1.05;;;0.80;;
56141;SDS011;42018;48.588;10.836;2024-02-23T04:01:21;2.33;;;1.00;;
56141;SDS011;42018;48.588;10.836;2024-02-23T04:04:07;1.00;;;0.90;;
56141;SDS011;42018;48.588;10.836;2024-02-23T04:06:52;1.65;;;0.90;;
56141;SDS011;42018;48.588;10.836;2024-02-23T04:09:38;1.48;;;1.08;;
56141;SDS011;42018;48.588;10.836;2024-02-23T04:12:23;3.08;;;1.00;;
56141;SDS011;42018;48.588;10.836;2024-02-23T04:15:09;0.80;;;0.80;;
56141;SDS011;42018;48.588;10.836;2024-02-23T04:17:55;1.67;;;1.00;;
56141;SDS011;42018;48.588;10.836;2024-02-23T04:20:40;2.03;;;1.00;;
56141;SDS011;42018;48.588;10.836;2024-02-23T04:23:26;1.00;;;0.90;;
56141;SDS011;42018;48.588;10.836;2024-02-23T04:26:12;1.13;;;1.00;;
56141;SDS011;42018;48.588;10.836;2024-02-23T04:28:58;0.90;;;0.90;;
56141;SDS011;42018;48.588;10.836;2024-02-23T04:31:43;1.35;;;1.08;;
56141;SDS011;42018;48.588;10.836;2024-02-23T04:34:29;1.23;;;0.90;;
56141;SDS011;42018;48.588;10.836;2024-02-23T04:37:14;1.23;;;1.13;;
56141;SDS011;42018;48.588;10.836;2024-02-23T04:39:59;1.00;;;0.90;;
56141;SDS011;42018;48.588;10.836;2024-02-23T04:42:45;3.60;;;1.10;;
56141;SDS011;42018;48.588;10.836;2024-02-23T04:45:32;1.15;;;0.90;;
56141;SDS011;42018;48.588;10.836;2024-02-23T04:48:17;1.88;;;0.85;;
56141;SDS011;42018;48.588;10.836;2024-02-23T04:51:03;0.80;;;0.80;;
56141;SDS011;42018;48.588;10.836;2024-02-23T04:53:49;0.80;;;0.80;;
56141;SDS011;42018;48.588;10.836;2024-02-23T04:56:35;0.80;;;0.80;;
56141;SDS011;42018;48.588;10.836;2024-02-23T04:59:20;1.25;;;0.90;;
56141;SDS011;42018;48.588;10.836;2024-02-23T05:02:06;0.80;;;0.80;;
56141;SDS011;42018;48.588;10.836;2024-02-23T05:04:52;2.05;;;0.90;;
56141;SDS011;42018;48.588;10.836;2024-02-23T05:07:38;0.93;;;0.82;;
56141;SDS011;42018;48.588;10.836;2024-02-23T05:10:23;1.00;;;0.80;;
56141;SDS011;42018;48.588;10.836;2024-02-23T05:13:09;0.80;;;0.80;;
56141;SDS011;42018;48.588;10.836;2024-02-23T05:15:55;1.00;;;0.90;;
56141;SDS011;42018;48.588;10.836;2024-02-23T05:18:42;1.83;;;0.98;;
56141;SDS011;42018;48.588;10.836;2024-02-23T05:21:28;1.27;;;0.95;;
56141;SDS011;42018;48.588;10.836;2024-02-23T05:24:14;1.55;;;1.02;;
56141;SDS011;42018;48.588;10.836;2024-02-23T05:26:59;1.75;;;1.10;;
56141;SDS011;42018;48.588;10.836;2024-02-23T05:29:48;1.17;;;1.00;;
56141;SDS011;42018;48.588;10.836;2024-02-23T05:32:34;2.75;;;1.00;;
56141;SDS011;42018;48.588;10.836;2024-02-23T05:35:19;1.33;;;0.90;;
56141;SDS011;42018;48.588;10.836;2024-02-23T05:38:05;0.93;;;0.80;;
56141;SDS011;42018;48.588;10.836;2024-02-23T05:40:51;1.88;;;1.08;;
56141;SDS011;42018;48.588;10.836;2024-02-23T05:43:36;1.05;;;0.82;;
56141;SDS011;42018;48.588;10.836;2024-02-23T05:46:22;1.20;;;0.90;;
56141;SDS011;42018;48.588;10.836;2024-02-23T05:49:07;0.80;;;0.80;;
56141;SDS011;42018;48.588;10.836;2024-02-23T05:51:54;1.08;;;0.90;;
56141;SDS011;42018;48.588;10.836;2024-02-23T05:54:40;1.73;;;1.00;;
56141;SDS011;42018;48.588;10.836;2024-02-23T05:57:26;2.30;;;1.00;;
56141;SDS011;42018;48.588;10.836;2024-02-23T06:00:12;2.75;;;1.10;;
56141;SDS011;42018;48.588;10.836;2024-02-23T06:02:59;1.15;;;1.00;;
56141;SDS011;42018;48.588;10.836;2024-02-23T06:05:45;1.50;;;0.93;;
56141;SDS011;42018;48.588;10.836;2024-02-23T06:08:31;1.85;;;0.90;;
56141;SDS011;42018;48.588;10.836;2024-02-23T06:11:16;4.03;;;1.20;;
56141;SDS011;42018;48.588;10.836;2024-02-23T06:14:02;1.70;;;1.00;;
56141;SDS011;42018;48.588;10.836;2024-02-23T06:16:48;1.83;;;1.00;;
56141;SDS011;42018;48.588;10.836;2024-02-23T06:19:34;1.83;;;1.02;;
56141;SDS011;42018;48.588;10.836;2024-02-23T06:22:19;5.97;;;1.20;;
56141;SDS011;42018;48.588;10.836;2024-02-23T06:25:08;2.08;;;1.00;;
56141;SDS011;42018;48.588;10.836;2024-02-23T06:27:54;2.28;;;1.20;;
56141;SDS011;42018;48.588;10.836;2024-02-23T06:30:39;3.17;;;1.10;;
56141;SDS011;42018;48.588;10.836;2024-02-23T06:33:25;1.20;;;1.00;;
56141;SDS011;42018;48.588;10.836;2024-02-23T06:36:10;2.55;;;1.20;;
56141;SDS011;42018;48.588;10.836;2024-02-23T06:38:56;2.63;;;1.20;;
56141;SDS011;42018;48.588;10.836;2024-02-23T06:41:42;2.13;;;0.95;;
56141;SDS011;42018;48.588;10.836;2024-02-23T06:44:27;0.95;;;0.85;;
56141;SDS011;42018;48.588;10.836;2024-02-23T06:47:12;1.70;;;1.00;;
56141;SDS011;42018;48.588;10.836;2024-02-23T06:49:59;2.08;;;1.00;;
56141;SDS011;42018;48.588;10.836;2024-02-23T06:52:45;1.67;;;1.05;;
56141;SDS011;42018;48.588;10.836;2024-02-23T06:55:36;2.42;;;1.00;;
56141;SDS011;42018;48.588;10.836;2024-02-23T06:58:22;2.88;;;1.40;;
56141;SDS011;42018;48.588;10.836;2024-02-23T07:01:07;3.53;;;1.50;;
56141;SDS011;42018;48.588;10.836;2024-02-23T07:03:56;2.15;;;1.20;;
56141;SDS011;42018;48.588;10.836;2024-02-23T07:06:42;3.20;;;1.25;;
56141;SDS011;42018;48.588;10.836;2024-02-23T07:09:28;4.22;;;1.40;;
56141;SDS011;42018;48.588;10.836;2024-02-23T07:12:13;2.63;;;1.30;;
56141;SDS011;42018;48.588;10.836;2024-02-23T07:14:59;2.40;;;1.33;;
56141;SDS011;42018;48.588;10.836;2024-02-23T07:17:45;2.13;;;1.15;;
56141;SDS011;42018;48.588;10.836;2024-02-23T07:20:30;2.08;;;1.20;;
56141;SDS011;42018;48.588;10.836;2024-02-23T07:23:16;2.10;;;1.10;;
56141;SDS011;42018;48.588;10.836;2024-02-23T07:26:02;2.35;;;1.20;;
56141;SDS011;42018;48.588;10.836;2024-02-23T07:28:48;1.77;;;1.08;;
56141;SDS011;42018;48.588;10.836;2024-02-23T07:31:34;2.00;;;1.10;;
56141;SDS011;42018;48.588;10.836;2024-02-23T07:34:20;3.90;;;1.10;;
56141;SDS011;42018;48.588;10.836;2024-02-23T07:37:05;2.35;;;1.30;;
56141;SDS011;42018;48.588;10.836;2024-02-23T07:39:51;1.77;;;1.10;;
56141;SDS011;42018;48.588;10.836;2024-02-23T07:42:36;1.30;;;1.00;;
56141;SDS011;42018;48.588;10.836;2024-02-23T07:45:22;2.15;;;1.10;;
56141;SDS011;42018;48.588;10.836;2024-02-23T07:48:08;7.15;;;1.20;;
56141;SDS011;42018;48.588;10.836;2024-02-23T07:50:53;3.80;;;1.27;;
56141;SDS011;42018;48.588;10.836;2024-02-23T07:53:39;2.95;;;1.40;;
56141;SDS011;42018;48.588;10.836;2024-02-23T07:56:25;3.20;;;1.40;;
56141;SDS011;42018;48.588;10.836;2024-02-23T07:59:10;5.00;;;1.90;;
56141;SDS011;42018;48.588;10.836;2024-02-23T08:01:56;4.55;;;1.65;;
56141;SDS011;42018;48.588;10.836;2024-02-23T08:04:42;4.90;;;1.70;;
56141;SDS011;42018;48.588;10.836;2024-02-23T08:07:28;2.10;;;1.25;;
56141;SDS011;42018;48.588;10.836;2024-02-23T08:10:15;4.82;;;1.60;;
56141;SDS011;42018;48.588;10.836;2024-02-23T08:13:01;3.40;;;1.65;;
56141;SDS011;42018;48.588;10.836;2024-02-23T08:15:47;3.30;;;1.73;;
56141;SDS011;42018;48.588;10.836;2024-02-23T08:18:32;4.68;;;1.70;;
56141;SDS011;42018;48.588;10.836;2024-02-23T08:21:18;3.10;;;1.20;;
56141;SDS011;42018;48.588;10.836;2024-02-23T08:24:04;2.97;;;1.30;;
56141;SDS011;42018;48.588;10.836;2024-02-23T08:26:50;2.20;;;1.17;;
56141;SDS011;42018;48.588;10.836;2024-02-23T08:29:37;1.90;;;1.00;;
56141;SDS011;42018;48.588;10.836;2024-02-23T08:32:23;3.65;;;1.25;;
56141;SDS011;42018;48.588;10.836;2024-02-23T08:35:09;2.38;;;1.20;;
56141;SDS011;42018;48.588;10.836;2024-02-23T08:37:55;3.70;;;1.30;;
56141;SDS011;42018;48.588;10.836;2024-02-23T08:40:40;2.30;;;1.10;;
56141;SDS011;42018;48.588;10.836;2024-02-23T08:43:27;4.65;;;1.48;;
56141;SDS011;42018;48.588;10.836;2024-02-23T08:46:12;2.45;;;1.17;;
56141;SDS011;42018;48.588;10.836;2024-02-23T08:48:58;2.78;;;1.30;;
56141;SDS011;42018;48.588;10.836;2024-02-23T08:51:43;2.97;;;1.35;;
56141;SDS011;42018;48.588;10.836;2024-02-23T08:54:29;2.58;;;1.30;;
56141;SDS011;42018;48.588;10.836;2024-02-23T08:57:15;2.85;;;1.30;;
56141;SDS011;42018;48.588;10.836;2024-02-23T09:00:05;3.03;;;1.33;;
56141;SDS011;42018;48.588;10.836;2024-02-23T09:02:51;2.45;;;1.10;;
56141;SDS011;42018;48.588;10.836;2024-02-23T09:05:37;2.30;;;1.15;;
56141;SDS011;42018;48.588;10.836;2024-02-23T09:08:22;2.60;;;1.23;;
56141;SDS011;42018;48.588;10.836;2024-02-23T09:11:08;2.40;;;1.20;;
56141;SDS011;42018;48.588;10.836;2024-02-23T09:13:53;2.10;;;1.10;;
56141;SDS011;42018;48.588;10.836;2024-02-23T09:16:39;2.53;;;1.20;;
56141;SDS011;42018;48.588;10.836;2024-02-23T09:19:24;2.92;;;1.25;;
56141;SDS011;42018;48.588;10.836;2024-02-23T09:22:10;3.53;;;1.40;;
56141;SDS011;42018;48.588;10.836;2024-02-23T09:24:55;2.47;;;1.20;;
56141;SDS011;42018;48.588;10.836;2024-02-23T09:27:41;2.58;;;1.17;;
56141;SDS011;42018;48.588;10.836;2024-02-23T09:30:29;1.85;;;1.08;;
56141;SDS011;42018;48.588;10.836;2024-02-23T09:33:15;2.97;;;1.15;;
56141;SDS011;42018;48.588;10.836;2024-02-23T09:36:01;3.25;;;1.10;;
56141;SDS011;42018;48.588;10.836;2024-02-23T09:38:47;2.83;;;1.15;;
56141;SDS011;42018;48.588;10.836;2024-02-23T09:41:33;2.88;;;1.30;;
56141;SDS011;42018;48.588;10.836;2024-02-23T09:44:20;3.90;;;1.30;;
56141;SDS011;42018;48.588;10.836;2024-02-23T09:47:07;3.40;;;1.42;;
56141;SDS011;42018;48.588;10.836;2024-02-23T09:49:55;2.97;;;1.38;;
56141;SDS011;42018;48.588;10.836;2024-02-23T09:52:41;2.72;;;1.30;;
56141;SDS011;42018;48.588;10.836;2024-02-23T09:55:26;2.63;;;1.30;;
56141;SDS011;42018;48.588;10.836;2024-02-23T09:58:13;2.97;;;1.27;;
56141;SDS011;42018;48.588;10.836;2024-02-23T10:01:02;3.40;;;1.20;;
56141;SDS011;42018;48.588;10.836;2024-02-23T10:03:48;3.33;;;1.42;;
56141;SDS011;42018;48.588;10.836;2024-02-23T10:06:34;1.85;;;1.10;;
56141;SDS011;42018;48.588;10.836;2024-02-23T10:09:19;5.70;;;1.52;;
56141;SDS011;42018;48.588;10.836;2024-02-23T10:12:06;2.17;;;1.20;;
56141;SDS011;42018;48.588;10.836;2024-02-23T10:14:53;4.60;;;1.20;;
56141;SDS011;42018;48.588;10.836;2024-02-23T10:17:38;5.65;;;1.35;;
56141;SDS011;42018;48.588;10.836;2024-02-23T10:20:25;3.05;;;1.40;;
56141;SDS011;42018;48.588;10.836;2024-02-23T10:23:11;4.13;;;1.38;;
56141;SDS011;42018;48.588;10.836;2024-02-23T10:25:56;4.78;;;1.15;;
56141;SDS011;42018;48.588;10.836;2024-02-23T10:28:42;2.15;;;1.20;;
56141;SDS011;42018;48.588;10.836;2024-02-23T10:31:27;4.78;;;1.13;;
56141;SDS011;42018;48.588;10.836;2024-02-23T10:34:13;2.63;;;1.17;;
56141;SDS011;42018;48.588;10.836;2024-02-23T10:37:00;3.83;;;1.30;;
56141;SDS011;42018;48.588;10.836;2024-02-23T10:39:46;3.08;;;1.17;;
56141;SDS011;42018;48.588;10.836;2024-02-23T10:42:33;2.65;;;1.20;;
56141;SDS011;42018;48.588;10.836;2024-02-23T10:45:21;4.07;;;1.37;;
56141;SDS011;42018;48.588;10.836;2024-02-23T10:48:08;2.65;;;1.20;;
56141;SDS011;42018;48.588;10.836;2024-02-23T10:50:55;3.67;;;1.30;;
56141;SDS011;42018;48.588;10.836;2024-02-23T10:53:44;3.58;;;1.23;;
56141;SDS011;42018;48.588;10.836;2024-02-23T10:56:31;3.10;;;1.35;;
56141;SDS011;42018;48.588;10.836;2024-02-23T10:59:17;5.15;;;1.30;;
56141;SDS011;42018;48.588;10.836;2024-02-23T11:02:07;2.15;;;1.10;;
56141;SDS011;42018;48.588;10.836;2024-02-23T11:04:53;4.38;;;1.20;;
56141;SDS011;42018;48.588;10.836;2024-02-23T11:07:41;3.95;;;1.15;;
56141;SDS011;42018;48.588;10.836;2024-02-23T11:10:27;5.75;;;1.10;;
56141;SDS011;42018;48.588;10.836;2024-02-23T11:13:13;2.60;;;1.27;;
56141;SDS011;42018;48.588;10.836;2024-02-23T11:16:06;2.50;;;1.20;;
56141;SDS011;42018;48.588;10.836;2024-02-23T11:19:05;3.88;;;1.50;;
56141;SDS011;42018;48.588;10.836;2024-02-23T11:21:54;2.92;;;1.13;;
56141;SDS011;42018;48.588;10.836;2024-02-23T11:24:44;3.75;;;1.52;;
56141;SDS011;42018;48.588;10.836;2024-02-23T11:27:30;3.22;;;1.35;;
56141;SDS011;42018;48.588;10.836;2024-02-23T11:30:17;3.33;;;1.33;;
56141;SDS011;42018;48.588;10.836;2024-02-23T11:33:02;3.78;;;1.40;;
56141;SDS011;42018;48.588;10.836;2024-02-23T11:35:48;4.18;;;1.20;;
56141;SDS011;42018;48.588;10.836;2024-02-23T11:38:34;5.72;;;1.40;;
56141;SDS011;42018;48.588;10.836;2024-02-23T11:41:21;4.38;;;1.38;;
56141;SDS011;42018;48.588;10.836;2024-02-23T11:44:07;1.77;;;1.10;;
56141;SDS011;42018;48.588;10.836;2024-02-23T11:46:53;6.13;;;1.20;;
56141;SDS011;42018;48.588;10.836;2024-02-23T11:49:38;3.92;;;1.23;;
56141;SDS011;42018;48.588;10.836;2024-02-23T11:52:24;3.30;;;1.45;;
56141;SDS011;42018;48.588;10.836;2024-02-23T11:55:10;2.20;;;1.10;;
56141;SDS011;42018;48.588;10.836;2024-02-23T11:57:56;4.10;;;1.30;;
56141;SDS011;42018;48.588;10.836;2024-02-23T12:00:42;4.35;;;1.35;;
56141;SDS011;42018;48.588;10.836;2024-02-23T12:03:28;4.68;;;1.20;;
56141;SDS011;42018;48.588;10.836;2024-02-23T12:06:14;1.60;;;0.90;;
56141;SDS011;42018;48.588;10.836;2024-02-23T12:09:03;4.05;;;1.55;;
56141;SDS011;42018;48.588;10.836;2024-02-23T12:11:50;2.38;;;1.20;;
56141;SDS011;42018;48.588;10.836;2024-02-23T12:14:36;5.90;;;1.33;;
56141;SDS011;42018;48.588;10.836;2024-02-23T12:17:22;3.17;;;1.13;;
56141;SDS011;42018;48.588;10.836;2024-02-23T12:20:07;3.33;;;1.20;;
56141;SDS011;42018;48.588;10.836;2024-02-23T12:22:56;3.33;;;1.10;;
56141;SDS011;42018;48.588;10.836;2024-02-23T12:25:52;4.60;;;1.65;;
56141;SDS011;42018;48.588;10.836;2024-02-23T12:28:40;3.95;;;1.33;;
56141;SDS011;42018;48.588;10.836;2024-02-23T12:31:26;3.28;;;1.10;;
56141;SDS011;42018;48.588;10.836;2024-02-23T12:34:11;5.38;;;1.30;;
56141;SDS011;42018;48.588;10.836;2024-02-23T12:36:58;3.72;;;1.27;;
56141;SDS011;42018;48.588;10.836;2024-02-23T12:39:44;3.83;;;1.40;;
56141;SDS011;42018;48.588;10.836;2024-02-23T12:42:30;3.70;;;1.38;;
56141;SDS011;42018;48.588;10.836;2024-02-23T12:45:15;3.45;;;1.30;;
56141;SDS011;42018;48.588;10.836;2024-02-23T12:48:01;3.30;;;1.40;;
56141;SDS011;42018;48.588;10.836;2024-02-23T12:50:47;2.67;;;1.38;;
56141;SDS011;42018;48.588;10.836;2024-02-23T12:53:33;3.47;;;1.20;;
56141;SDS011;42018;48.588;10.836;2024-02-23T12:56:22;4.32;;;1.77;;
56141;SDS011;42018;48.588;10.836;2024-02-23T12:59:10;4.97;;;1.70;;
56141;SDS011;42018;48.588;10.836;2024-02-23T13:01:58;5.13;;;1.35;;
56141;SDS011;42018;48.588;10.836;2024-02-23T13:04:43;5.97;;;1.40;;
56141;SDS011;42018;48.588;10.836;2024-02-23T13:07:33;3.25;;;1.40;;
56141;SDS011;42018;48.588;10.836;2024-02-23T13:10:19;4.10;;;1.30;;
56141;SDS011;42018;48.588;10.836;2024-02-23T13:13:05;5.28;;;1.50;;
56141;SDS011;42018;48.588;10.836;2024-02-23T13:15:51;5.63;;;1.45;;
56141;SDS011;42018;48.588;10.836;2024-02-23T13:18:38;3.85;;;1.33;;
56141;SDS011;42018;48.588;10.836;2024-02-23T13:21:23;5.53;;;1.35;;
56141;SDS011;42018;48.588;10.836;2024-02-23T13:24:09;3.70;;;1.25;;
56141;SDS011;42018;48.588;10.836;2024-02-23T13:26:55;4.18;;;1.25;;
56141;SDS011;42018;48.588;10.836;2024-02-23T13:29:40;4.03;;;1.38;;
56141;SDS011;42018;48.588;10.836;2024-02-23T13:32:26;2.95;;;1.27;;
56141;SDS011;42018;48.588;10.836;2024-02-23T13:35:11;5.78;;;1.60;;
56141;SDS011;42018;48.588;10.836;2024-02-23T13:37:59;2.95;;;1.30;;
56141;SDS011;42018;48.588;10.836;2024-02-23T13:40:45;4.40;;;1.50;;
56141;SDS011;42018;48.588;10.836;2024-02-23T13:43:30;2.80;;;1.20;;
56141;SDS011;42018;48.588;10.836;2024-02-23T13:46:15;3.42;;;1.40;;
56141;SDS011;42018;48.588;10.836;2024-02-23T13:49:02;4.15;;;1.40;;
56141;SDS011;42018;48.588;10.836;2024-02-23T13:51:49;5.88;;;1.40;;
56141;SDS011;42018;48.588;10.836;2024-02-23T13:54:35;5.18;;;1.40;;
56141;SDS011;42018;48.588;10.836;2024-02-23T13:57:20;4.78;;;1.58;;
56141;SDS011;42018;48.588;10.836;2024-02-23T14:00:06;3.33;;;1.30;;
56141;SDS011;42018;48.588;10.836;2024-02-23T14:02:58;4.55;;;1.63;;
56141;SDS011;42018;48.588;10.836;2024-02-23T14:05:43;5.28;;;1.55;;
56141;SDS011;42018;48.588;10.836;2024-02-23T14:08:30;4.95;;;1.63;;
56141;SDS011;42018;48.588;10.836;2024-02-23T14:11:16;4.97;;;1.58;;
56141;SDS011;42018;48.588;10.836;2024-02-23T14:14:03;3.38;;;1.38;;
56141;SDS011;42018;48.588;10.836;2024-02-23T14:16:49;3.85;;;1.55;;
56141;SDS011;42018;48.588;10.836;2024-02-23T14:19:35;3.67;;;1.48;;
56141;SDS011;42018;48.588;10.836;2024-02-23T14:22:21;2.88;;;1.30;;
56141;SDS011;42018;48.588;10.836;2024-02-23T14:25:06;3.15;;;1.35;;
56141;SDS011;42018;48.588;10.836;2024-02-23T14:27:53;4.18;;;1.60;;
56141;SDS011;42018;48.588;10.836;2024-02-23T14:30:40;3.45;;;1.30;;
56141;SDS011;42018;48.588;10.836;2024-02-23T14:33:28;4.15;;;1.35;;
56141;SDS011;42018;48.588;10.836;2024-02-23T14:36:14;4.72;;;1.42;;
56141;SDS011;42018;48.588;10.836;2024-02-23T14:38:59;5.78;;;1.70;;
56141;SDS011;42018;48.588;10.836;2024-02-23T14:41:45;5.15;;;1.60;;
56141;SDS011;42018;48.588;10.836;2024-02-23T14:44:31;3.42;;;1.50;;
56141;SDS011;42018;48.588;10.836;2024-02-23T14:47:16;4.90;;;1.50;;
56141;SDS011;42018;48.588;10.836;2024-02-23T14:50:02;5.40;;;1.50;;
56141;SDS011;42018;48.588;10.836;2024-02-23T14:52:47;4.60;;;1.50;;
56141;SDS011;42018;48.588;10.836;2024-02-23T14:55:33;3.33;;;1.42;;
56141;SDS011;42018;48.588;10.836;2024-02-23T14:58:19;5.55;;;1.58;;
56141;SDS011;42018;48.588;10.836;2024-02-23T15:01:05;4.00;;;1.80;;
56141;SDS011;42018;48.588;10.836;2024-02-23T15:03:51;5.15;;;1.55;;
56141;SDS011;42018;48.588;10.836;2024-02-23T15:06:37;3.67;;;1.40;;
56141;SDS011;42018;48.588;10.836;2024-02-23T15:09:22;3.58;;;1.60;;
56141;SDS011;42018;48.588;10.836;2024-02-23T15:12:08;4.72;;;1.50;;
56141;SDS011;42018;48.588;10.836;2024-02-23T15:14:54;3.15;;;1.50;;
56141;SDS011;42018;48.588;10.836;2024-02-23T15:17:39;4.88;;;2.00;;
56141;SDS011;42018;48.588;10.836;2024-02-23T15:20:27;5.97;;;2.00;;
56141;SDS011;42018;48.588;10.836;2024-02-23T15:23:12;5.40;;;1.85;;
56141;SDS011;42018;48.588;10.836;2024-02-23T15:25:58;3.63;;;1.50;;
56141;SDS011;42018;48.588;10.836;2024-02-23T15:28:43;4.45;;;1.58;;
56141;SDS011;42018;48.588;10.836;2024-02-23T15:31:29;3.67;;;1.80;;
56141;SDS011;42018;48.588;10.836;2024-02-23T15:34:15;4.35;;;1.85;;
56141;SDS011;42018;48.588;10.836;2024-02-23T15:37:00;4.03;;;1.70;;
56141;SDS011;42018;48.588;10.836;2024-02-23T15:39:46;3.10;;;1.60;;
56141;SDS011;42018;48.588;10.836;2024-02-23T15:42:32;4.80;;;2.17;;
56141;SDS011;42018;48.588;10.836;2024-02-23T15:45:20;5.97;;;2.20;;
56141;SDS011;42018;48.588;10.836;2024-02-23T15:48:06;5.53;;;2.25;;
56141;SDS011;42018;48.588;10.836;2024-02-23T15:50:52;5.00;;;1.73;;
56141;SDS011;42018;48.588;10.836;2024-02-23T15:53:38;4.55;;;1.85;;
56141;SDS011;42018;48.588;10.836;2024-02-23T15:56:23;4.93;;;1.90;;
56141;SDS011;42018;48.588;10.836;2024-02-23T15:59:09;3.42;;;1.38;;
56141;SDS011;42018;48.588;10.836;2024-02-23T16:01:55;2.63;;;1.50;;
56141;SDS011;42018;48.588;10.836;2024-02-23T16:04:41;3.22;;;1.63;;
56141;SDS011;42018;48.588;10.836;2024-02-23T16:07:27;3.47;;;1.80;;
56141;SDS011;42018;48.588;10.836;2024-02-23T16:10:13;5.15;;;2.30;;
56141;SDS011;42018;48.588;10.836;2024-02-23T16:12:59;10.00;;;3.42;;
56141;SDS011;42018;48.588;10.836;2024-02-23T16:15:45;6.05;;;2.08;;
56141;SDS011;42018;48.588;10.836;2024-02-23T16:18:32;2.53;;;1.42;;
56141;SDS011;42018;48.588;10.836;2024-02-23T16:21:18;3.08;;;1.45;;
56141;SDS011;42018;48.588;10.836;2024-02-23T16:24:04;2.92;;;1.40;;